createdAt,value
2018-02-19T00:00:14.588Z,-3.41
2018-02-19T00:01:14.477Z,-3.40
2018-02-19T00:02:14.433Z,-3.40
2018-02-19T00:03:14.441Z,-3.45
2018-02-19T00:04:14.304Z,-3.48
2018-02-19T00:05:14.392Z,-3.52
2018-02-19T00:06:14.464Z,-3.52
2018-02-19T00:07:14.354Z,-3.51
2018-02-19T00:08:14.376Z,-3.56
2018-02-19T00:09:20.907Z,-3.54
2018-02-19T00:10:14.388Z,-3.59
2018-02-19T00:11:14.099Z,-3.56
2018-02-19T00:12:14.039Z,-3.58
2018-02-19T00:13:14.249Z,-3.58
2018-02-19T00:14:14.056Z,-3.69
2018-02-19T00:15:14.122Z,-3.56
2018-02-19T00:16:14.029Z,-3.59
2018-02-19T00:17:14.154Z,-3.58
2018-02-19T00:18:14.039Z,-3.56
2018-02-19T00:19:14.029Z,-3.56
2018-02-19T00:20:14.515Z,-3.61
2018-02-19T00:21:14.083Z,-3.56
2018-02-19T00:22:13.880Z,-3.58
2018-02-19T00:23:13.936Z,-3.67
2018-02-19T00:24:13.892Z,-3.58
2018-02-19T00:25:13.844Z,-3.63
2018-02-19T00:26:13.842Z,-3.59
2018-02-19T00:27:14.051Z,-3.64
2018-02-19T00:28:13.933Z,-3.61
2018-02-19T00:29:13.672Z,-3.63
2018-02-19T00:30:13.871Z,-3.61
2018-02-19T00:31:13.664Z,-3.67
2018-02-19T00:32:13.748Z,-3.74
2018-02-19T00:33:13.663Z,-3.74
2018-02-19T00:34:13.651Z,-3.70
2018-02-19T00:35:13.613Z,-3.82
2018-02-19T00:36:13.391Z,-3.77
2018-02-19T00:37:13.498Z,-3.72
2018-02-19T00:38:13.533Z,-3.63
2018-02-19T00:39:13.505Z,-3.59
2018-02-19T00:40:13.323Z,-3.64
2018-02-19T00:41:13.895Z,-3.66
2018-02-19T00:42:13.407Z,-3.58
2018-02-19T00:43:13.332Z,-3.56
2018-02-19T00:44:13.194Z,-3.59
2018-02-19T00:45:13.270Z,-3.49
2018-02-19T00:46:13.347Z,-3.54
2018-02-19T00:47:13.183Z,-3.49
2018-02-19T00:48:13.277Z,-3.48
2018-02-19T00:49:13.147Z,-3.48
2018-02-19T00:50:13.150Z,-3.55
2018-02-19T00:51:13.166Z,-3.45
2018-02-19T00:52:13.006Z,-3.41
2018-02-19T00:53:13.088Z,-3.48
2018-02-19T00:54:13.017Z,-3.40
2018-02-19T00:55:13.137Z,-3.34
2018-02-19T00:56:13.034Z,-3.33
2018-02-19T00:57:12.965Z,-3.31
2018-02-19T00:58:13.116Z,-3.33
2018-02-19T00:59:12.972Z,-3.37
2018-02-19T01:00:13.452Z,-3.28
2018-02-19T01:01:12.766Z,-3.22
2018-02-19T01:02:12.949Z,-3.27
2018-02-19T01:03:12.825Z,-3.25
2018-02-19T01:04:13.042Z,-3.15
2018-02-19T01:05:12.893Z,-3.13
2018-02-19T01:06:13.045Z,-3.23
2018-02-19T01:07:12.848Z,-3.23
2018-02-19T01:08:12.816Z,-3.22
2018-02-19T01:09:12.560Z,-3.10
2018-02-19T01:10:12.851Z,-3.13
2018-02-19T01:11:12.707Z,-3.19
2018-02-19T01:12:12.544Z,-3.20
2018-02-19T01:13:12.536Z,-3.23
2018-02-19T01:14:12.673Z,-3.13
2018-02-19T01:15:12.599Z,-3.19
2018-02-19T01:16:12.564Z,-3.13
2018-02-19T01:17:12.366Z,-3.15
2018-02-19T01:18:12.575Z,-3.19
2018-02-19T01:19:12.476Z,-3.19
2018-02-19T01:20:12.522Z,-3.16
2018-02-19T01:21:13.105Z,-3.19
2018-02-19T01:22:12.362Z,-3.22
2018-02-19T01:23:12.495Z,-3.20
2018-02-19T01:24:12.531Z,-3.16
2018-02-19T01:25:12.279Z,-3.16
2018-02-19T01:26:12.280Z,-3.19
2018-02-19T01:27:12.130Z,-3.20
2018-02-19T01:28:12.065Z,-3.22
2018-02-19T01:29:12.168Z,-3.20
2018-02-19T01:30:12.157Z,-3.20
2018-02-19T01:31:12.008Z,-3.12
2018-02-19T01:32:12.944Z,-3.16
2018-02-19T01:33:12.029Z,-3.22
2018-02-19T01:34:12.056Z,-3.19
2018-02-19T01:35:12.019Z,-3.13
2018-02-19T01:36:12.079Z,-3.15
2018-02-19T01:37:11.912Z,-3.16
2018-02-19T01:38:11.904Z,-3.22
2018-02-19T01:39:12.033Z,-3.22
2018-02-19T01:40:11.959Z,-3.13
2018-02-19T01:41:12.099Z,-3.10
2018-02-19T01:42:11.964Z,-3.10
2018-02-19T01:43:11.751Z,-3.19
2018-02-19T01:44:11.770Z,-3.09
2018-02-19T01:45:11.910Z,-3.12
2018-02-19T01:46:11.893Z,-3.20
2018-02-19T01:47:11.691Z,-3.19
2018-02-19T01:48:14.515Z,-3.07
2018-02-19T01:49:11.629Z,-3.16
2018-02-19T01:50:11.594Z,-3.19
2018-02-19T01:51:11.834Z,-3.19
2018-02-19T01:52:11.646Z,-3.15
2018-02-19T01:53:11.525Z,-3.19
2018-02-19T01:54:11.478Z,-3.28
2018-02-19T01:55:11.468Z,-3.20
2018-02-19T01:56:11.329Z,-3.23
2018-02-19T01:57:11.505Z,-3.25
2018-02-19T01:58:11.478Z,-3.34
2018-02-19T01:59:11.470Z,-3.28
2018-02-19T02:00:11.911Z,-3.30
2018-02-19T02:01:11.313Z,-3.23
2018-02-19T02:02:11.326Z,-3.23
2018-02-19T02:03:11.379Z,-3.23
2018-02-19T02:04:11.453Z,-3.33
2018-02-19T02:05:11.201Z,-3.28
2018-02-19T02:06:11.132Z,-3.27
2018-02-19T02:07:11.306Z,-3.20
2018-02-19T02:08:11.255Z,-3.22
2018-02-19T02:09:11.036Z,-3.16
2018-02-19T02:10:11.177Z,-3.25
2018-02-19T02:11:11.153Z,-3.27
2018-02-19T02:12:10.966Z,-3.25
2018-02-19T02:13:11.157Z,-3.22
2018-02-19T02:14:10.937Z,-3.25
2018-02-19T02:15:11.122Z,-3.25
2018-02-19T02:16:10.995Z,-3.17
2018-02-19T02:17:10.882Z,-3.33
2018-02-19T02:18:10.884Z,-3.33
2018-02-19T02:19:10.884Z,-3.35
2018-02-19T02:20:11.060Z,-3.33
2018-02-19T02:21:10.843Z,-3.34
2018-02-19T02:22:10.645Z,-3.37
2018-02-19T02:23:10.762Z,-3.45
2018-02-19T02:24:10.821Z,-3.37
2018-02-19T02:25:10.822Z,-3.51
2018-02-19T02:26:10.787Z,-3.48
2018-02-19T02:27:10.751Z,-3.38
2018-02-19T02:28:10.983Z,-3.49
2018-02-19T02:29:10.691Z,-3.48
2018-02-19T02:30:10.655Z,-3.44
2018-02-19T02:31:10.644Z,-3.48
2018-02-19T02:32:10.635Z,-3.46
2018-02-19T02:33:10.616Z,-3.45
2018-02-19T02:34:10.524Z,-3.49
2018-02-19T02:35:10.566Z,-3.46
2018-02-19T02:36:10.417Z,-3.49
2018-02-19T02:37:10.434Z,-3.48
2018-02-19T02:38:10.387Z,-3.52
2018-02-19T02:39:10.418Z,-3.51
2018-02-19T02:40:10.355Z,-3.49
2018-02-19T02:41:10.371Z,-3.48
2018-02-19T02:42:10.486Z,-3.52
2018-02-19T02:43:10.181Z,-3.40
2018-02-19T02:44:10.240Z,-3.40
2018-02-19T02:45:10.249Z,-3.35
2018-02-19T02:46:10.151Z,-3.31
2018-02-19T02:47:10.115Z,-3.27
2018-02-19T02:48:11.119Z,-3.33
2018-02-19T02:49:10.206Z,-3.37
2018-02-19T02:50:10.101Z,-3.30
2018-02-19T02:51:10.061Z,-3.20
2018-02-19T02:52:09.970Z,-3.22
2018-02-19T02:53:10.133Z,-3.20
2018-02-19T02:54:09.976Z,-3.20
2018-02-19T02:55:09.923Z,-3.17
2018-02-19T02:56:10.045Z,-3.01
2018-02-19T02:57:09.719Z,-2.98
2018-02-19T02:58:09.840Z,-2.98
2018-02-19T02:59:10.014Z,-2.98
2018-02-19T03:00:09.940Z,-2.94
2018-02-19T03:01:09.817Z,-2.80
2018-02-19T03:02:09.658Z,-2.86
2018-02-19T03:03:09.862Z,-2.83
2018-02-19T03:04:09.829Z,-2.84
2018-02-19T03:05:09.743Z,-2.84
2018-02-19T03:06:09.755Z,-2.78
2018-02-19T03:07:09.630Z,-2.83
2018-02-19T03:08:09.513Z,-2.89
2018-02-19T03:09:09.708Z,-2.84
2018-02-19T03:10:09.827Z,-2.88
2018-02-19T03:11:09.685Z,-2.98
2018-02-19T03:12:09.519Z,-2.95
2018-02-19T03:13:09.583Z,-2.84
2018-02-19T03:14:09.521Z,-2.88
2018-02-19T03:15:09.560Z,-2.92
2018-02-19T03:16:09.388Z,-2.94
2018-02-19T03:17:09.430Z,-3.01
2018-02-19T03:18:09.368Z,-2.98
2018-02-19T03:19:09.506Z,-2.99
2018-02-19T03:20:09.534Z,-3.02
2018-02-19T03:21:09.377Z,-3.04
2018-02-19T03:22:09.502Z,-3.01
2018-02-19T03:23:09.156Z,-3.04
2018-02-19T03:24:09.399Z,-3.07
2018-02-19T03:25:09.164Z,-3.10
2018-02-19T03:26:09.242Z,-3.07
2018-02-19T03:27:09.367Z,-3.15
2018-02-19T03:28:09.222Z,-3.15
2018-02-19T03:29:09.157Z,-3.10
2018-02-19T03:30:08.906Z,-3.07
2018-02-19T03:31:08.934Z,-3.15
2018-02-19T03:32:08.925Z,-3.13
2018-02-19T03:33:09.069Z,-3.12
2018-02-19T03:34:09.017Z,-3.13
2018-02-19T03:35:09.100Z,-3.19
2018-02-19T03:36:09.146Z,-3.22
2018-02-19T03:37:08.979Z,-3.17
2018-02-19T03:38:08.779Z,-3.25
2018-02-19T03:39:11.436Z,-3.22
2018-02-19T03:40:08.804Z,-3.20
2018-02-19T03:41:08.751Z,-3.10
2018-02-19T03:42:08.724Z,-3.12
2018-02-19T03:43:08.785Z,-3.17
2018-02-19T03:44:08.819Z,-3.10
2018-02-19T03:45:08.667Z,-3.15
2018-02-19T03:46:08.489Z,-3.09
2018-02-19T03:47:08.488Z,-3.23
2018-02-19T03:48:08.521Z,-3.17
2018-02-19T03:49:08.639Z,-3.20
2018-02-19T03:50:09.026Z,-3.17
2018-02-19T03:51:08.528Z,-3.15
2018-02-19T03:52:08.569Z,-3.13
2018-02-19T03:53:08.487Z,-3.10
2018-02-19T03:54:08.608Z,-3.12
2018-02-19T03:55:08.350Z,-3.06
2018-02-19T03:56:08.484Z,-3.02
2018-02-19T03:57:08.576Z,-3.04
2018-02-19T03:58:08.478Z,-3.01
2018-02-19T03:59:08.297Z,-3.04
2018-02-19T04:00:08.379Z,-2.99
2018-02-19T04:01:09.049Z,-3.01
2018-02-19T04:02:08.135Z,-2.91
2018-02-19T04:03:08.306Z,-2.94
2018-02-19T04:04:08.175Z,-2.91
2018-02-19T04:05:08.366Z,-2.86
2018-02-19T04:06:08.281Z,-2.91
2018-02-19T04:07:08.238Z,-2.84
2018-02-19T04:08:08.135Z,-2.76
2018-02-19T04:09:08.203Z,-2.80
2018-02-19T04:10:08.132Z,-2.80
2018-02-19T04:11:07.993Z,-2.77
2018-02-19T04:12:08.035Z,-2.78
2018-02-19T04:13:08.089Z,-2.76
2018-02-19T04:14:08.058Z,-2.81
2018-02-19T04:15:08.137Z,-2.73
2018-02-19T04:16:07.855Z,-2.74
2018-02-19T04:17:07.933Z,-2.86
2018-02-19T04:18:07.953Z,-2.76
2018-02-19T04:19:07.806Z,-2.70
2018-02-19T04:20:07.760Z,-2.80
2018-02-19T04:21:07.825Z,-2.73
2018-02-19T04:22:07.925Z,-2.73
2018-02-19T04:23:07.832Z,-2.78
2018-02-19T04:24:07.696Z,-2.73
2018-02-19T04:25:07.737Z,-2.73
2018-02-19T04:26:07.655Z,-2.83
2018-02-19T04:27:07.583Z,-2.76
2018-02-19T04:28:07.781Z,-2.76
2018-02-19T04:29:07.665Z,-2.74
2018-02-19T04:30:07.528Z,-2.78
2018-02-19T04:31:07.733Z,-2.71
2018-02-19T04:32:07.369Z,-2.66
2018-02-19T04:33:07.522Z,-2.71
2018-02-19T04:34:07.606Z,-2.73
2018-02-19T04:35:07.501Z,-2.66
2018-02-19T04:36:07.577Z,-2.60
2018-02-19T04:37:07.292Z,-2.65
2018-02-19T04:38:07.461Z,-2.59
2018-02-19T04:39:07.126Z,-2.60
2018-02-19T04:40:07.130Z,-2.56
2018-02-19T04:41:07.173Z,-2.56
2018-02-19T04:42:08.060Z,-2.53
2018-02-19T04:43:07.290Z,-2.40
2018-02-19T04:44:07.103Z,-2.40
2018-02-19T04:45:07.283Z,-2.40
2018-02-19T04:46:07.097Z,-2.37
2018-02-19T04:47:07.234Z,-2.32
2018-02-19T04:51:30.426Z,-2.28
2018-02-19T04:52:30.277Z,-2.34
2018-02-19T04:53:30.333Z,-2.30
2018-02-19T04:54:30.290Z,-2.25
2018-02-19T04:55:29.814Z,-2.30
2018-02-19T04:56:30.302Z,-2.28
2018-02-19T04:57:29.545Z,-2.22
2018-02-19T04:58:29.630Z,-2.23
2018-02-19T04:59:29.058Z,-2.19
2018-02-19T05:00:30.290Z,-2.25
2018-02-19T05:01:30.926Z,-2.19
2018-02-19T05:02:29.342Z,-2.15
2018-02-19T05:03:30.512Z,-2.25
2018-02-19T05:04:30.536Z,-2.22
2018-02-19T05:05:30.752Z,-2.16
2018-02-19T05:06:29.708Z,-2.22
2018-02-19T05:09:46.475Z,-2.19
2018-02-19T05:18:23.768Z,-2.04
2018-02-19T05:19:23.606Z,-2.15
2018-02-19T05:20:23.776Z,-2.04
2018-02-19T05:21:24.245Z,-2.05
2018-02-19T05:22:24.247Z,-2.05
2018-02-19T05:23:24.158Z,-1.98
2018-02-19T05:24:23.953Z,-2.04
2018-02-19T05:25:23.727Z,-1.97
2018-02-19T05:26:24.270Z,-2.07
2018-02-19T05:27:24.843Z,-2.02
2018-02-19T05:28:47.293Z,-2.04
2018-02-19T05:29:25.327Z,-2.02
2018-02-19T05:30:29.312Z,-2.00
2018-02-19T05:31:24.842Z,-2.02
2018-02-19T05:32:25.553Z,-2.01
2018-02-19T05:33:24.450Z,-2.02
2018-02-19T05:34:23.163Z,-2.04
2018-02-19T05:35:26.160Z,-2.02
2018-02-19T05:36:23.872Z,-2.04
2018-02-19T05:37:24.391Z,-2.05
2018-02-19T05:38:24.822Z,-1.97
2018-02-19T06:02:04.799Z,-2.08
2018-02-19T06:03:05.304Z,-2.10
2018-02-19T06:13:16.850Z,-1.95
2018-02-19T06:21:00.283Z,-1.95
2018-02-19T06:22:00.065Z,-1.97
2018-02-19T06:23:01.147Z,-1.92
2018-02-19T06:24:00.043Z,-1.84
2018-02-19T06:25:00.000Z,-1.89
2018-02-19T06:25:59.997Z,-1.87
2018-02-19T06:27:00.700Z,-1.92
2018-02-19T06:27:59.392Z,-1.84
2018-02-19T06:28:59.864Z,-1.76
2018-02-19T06:29:59.853Z,-1.80
2018-02-19T06:30:59.767Z,-1.86
2018-02-19T06:48:10.486Z,-1.64
2018-02-19T06:50:44.292Z,-1.58
2018-02-19T06:54:13.685Z,-1.47
2018-02-19T06:55:13.497Z,-1.56
2018-02-19T07:02:37.259Z,-1.54
2018-02-19T07:03:38.280Z,-1.65
2018-02-19T07:05:58.492Z,-1.59
2018-02-19T07:06:58.288Z,-1.58
2018-02-19T07:07:58.110Z,-1.66
2018-02-19T07:08:58.251Z,-1.59
2018-02-19T07:09:57.685Z,-1.69
2018-02-19T07:10:57.704Z,-1.62
2018-02-19T07:11:58.089Z,-1.56
2018-02-19T07:12:58.532Z,-1.58
2018-02-19T07:15:19.165Z,-1.41
2018-02-19T07:16:19.016Z,-1.41
2018-02-19T07:19:48.434Z,-1.30
2018-02-19T07:20:48.444Z,-1.30
2018-02-19T07:21:47.995Z,-1.19
2018-02-19T07:22:47.404Z,-1.17
2018-02-19T07:23:47.948Z,-1.01
2018-02-19T07:24:47.936Z,-1.09
2018-02-19T07:25:47.945Z,-1.01
2018-02-19T07:26:47.934Z,-0.99
2018-02-19T07:27:47.769Z,-0.90
2018-02-19T07:28:47.744Z,-0.75
2018-02-19T07:29:47.202Z,-0.71
2018-02-19T07:30:47.199Z,-0.75
2018-02-19T07:31:47.450Z,-0.65
2018-02-19T07:32:47.072Z,-0.70
2018-02-19T07:33:46.731Z,-0.54
2018-02-19T07:34:46.821Z,-0.56
2018-02-19T07:35:46.342Z,-0.57
2018-02-19T07:36:46.397Z,-0.57
2018-02-19T07:37:46.202Z,-0.46
2018-02-19T07:38:46.359Z,-0.49
2018-02-19T07:39:46.323Z,-0.43
2018-02-19T07:40:46.590Z,-0.44
2018-02-19T07:41:46.124Z,-0.47
2018-02-19T07:42:45.984Z,-0.44
2018-02-19T07:43:46.143Z,-0.35
2018-02-19T07:44:46.067Z,-0.34
2018-02-19T07:45:46.008Z,-0.38
2018-02-19T07:46:46.056Z,-0.39
2018-02-19T07:47:46.054Z,-0.26
2018-02-19T07:48:46.267Z,-0.13
2018-02-19T07:49:46.075Z,-0.06
2018-02-19T07:50:46.043Z,-0.15
2018-02-19T07:51:45.971Z,-0.07
2018-02-19T07:52:46.103Z,-0.07
2018-02-19T07:53:45.975Z,-0.07
2018-02-19T07:54:46.148Z,-0.02
2018-02-19T07:55:46.455Z,-0.03
2018-02-19T07:56:45.782Z,0.07
2018-02-19T07:57:45.892Z,0.05
2018-02-19T07:58:45.941Z,-0.02
2018-02-19T07:59:46.008Z,0.07
2018-02-19T08:00:45.709Z,0.16
2018-02-19T08:01:45.900Z,0.12
2018-02-19T08:02:46.095Z,0.18
2018-02-19T08:03:45.585Z,0.18
2018-02-19T08:04:45.704Z,0.15
2018-02-19T08:05:45.820Z,0.18
2018-02-19T08:06:46.672Z,0.31
2018-02-19T08:07:53.813Z,0.41
2018-02-19T08:09:38.553Z,0.58
2018-02-19T08:10:38.457Z,0.65
2018-02-19T08:11:38.422Z,0.81
2018-02-19T08:12:38.475Z,0.88
2018-02-19T08:13:38.069Z,1.04
2018-02-19T08:14:38.045Z,1.04
2018-02-19T08:15:38.005Z,1.24
2018-02-19T08:16:38.048Z,1.35
2018-02-19T08:17:38.016Z,1.45
2018-02-19T08:18:37.963Z,1.55
2018-02-19T08:19:37.921Z,1.60
2018-02-19T08:20:37.917Z,1.66
2018-02-19T08:21:37.865Z,1.85
2018-02-19T08:22:37.863Z,1.92
2018-02-19T08:23:37.824Z,2.00
2018-02-19T08:24:37.838Z,2.17
2018-02-19T08:25:37.799Z,2.24
2018-02-19T08:26:37.823Z,2.38
2018-02-19T08:27:37.738Z,2.49
2018-02-19T08:28:37.719Z,2.54
2018-02-19T08:29:37.670Z,2.69
2018-02-19T08:30:37.671Z,2.80
2018-02-19T08:31:37.637Z,2.89
2018-02-19T08:32:37.625Z,3.08
2018-02-19T08:33:37.649Z,3.22
2018-02-19T08:34:37.632Z,3.31
2018-02-19T08:35:37.571Z,3.42
2018-02-19T08:36:37.519Z,3.65
2018-02-19T08:37:37.508Z,3.78
2018-02-19T08:38:37.451Z,3.95
2018-02-19T08:39:37.429Z,3.95
2018-02-19T08:40:37.419Z,3.95
2018-02-19T08:41:37.446Z,3.96
2018-02-19T08:42:37.366Z,3.96
2018-02-19T08:43:37.340Z,3.88
2018-02-19T08:44:37.335Z,3.78
2018-02-19T08:45:37.308Z,3.81
2018-02-19T08:46:37.299Z,3.66
2018-02-19T08:47:37.246Z,3.68
2018-02-19T08:48:37.213Z,3.58
2018-02-19T08:49:37.202Z,3.53
2018-02-19T08:50:37.261Z,3.51
2018-02-19T08:51:37.203Z,3.53
2018-02-19T08:52:37.137Z,3.51
2018-02-19T08:53:37.102Z,3.41
2018-02-19T08:54:37.092Z,3.34
2018-02-19T08:55:37.067Z,3.41
2018-02-19T08:56:37.034Z,3.32
2018-02-19T08:57:37.048Z,3.32
2018-02-19T08:58:37.038Z,3.45
2018-02-19T08:59:36.987Z,3.47
2018-02-19T09:00:36.978Z,3.48
2018-02-19T09:01:36.974Z,3.50
2018-02-19T09:02:36.922Z,3.55
2018-02-19T09:03:36.908Z,3.63
2018-02-19T09:04:36.890Z,3.74
2018-02-19T09:05:36.830Z,3.92
2018-02-19T09:06:36.809Z,3.99
2018-02-19T09:07:36.803Z,4.16
2018-02-19T09:08:36.786Z,4.17
2018-02-19T09:09:36.759Z,4.34
2018-02-19T09:10:36.751Z,4.50
2018-02-19T09:11:36.739Z,4.82
2018-02-19T09:12:36.712Z,5.05
2018-02-19T09:13:36.701Z,5.53
2018-02-19T09:14:36.626Z,6.07
2018-02-19T09:15:36.634Z,6.48
2018-02-19T09:16:36.596Z,6.77
2018-02-19T09:17:36.583Z,6.69
2018-02-19T09:18:36.575Z,7.02
2018-02-19T09:19:36.565Z,7.40
2018-02-19T09:20:36.515Z,7.77
2018-02-19T09:21:36.491Z,8.08
2018-02-19T09:22:36.482Z,8.45
2018-02-19T09:23:36.482Z,8.69
2018-02-19T09:24:36.435Z,8.52
2018-02-19T09:25:36.406Z,8.33
2018-02-19T09:26:36.439Z,8.16
2018-02-19T09:27:36.434Z,7.85
2018-02-19T09:28:36.409Z,7.76
2018-02-19T09:29:36.328Z,7.70
2018-02-19T09:30:36.334Z,7.63
2018-02-19T09:31:36.278Z,8.12
2018-02-19T09:32:36.252Z,9.00
2018-02-19T09:33:36.238Z,9.26
2018-02-19T09:34:36.203Z,9.34
2018-02-19T09:35:36.196Z,9.08
2018-02-19T09:36:36.206Z,8.84
2018-02-19T09:37:36.172Z,8.64
2018-02-19T09:38:36.129Z,8.49
2018-02-19T09:39:36.100Z,8.18
2018-02-19T09:40:37.060Z,7.95
2018-02-19T09:41:36.149Z,7.79
2018-02-19T09:42:36.030Z,7.45
2018-02-19T09:43:36.090Z,7.28
2018-02-19T09:44:36.016Z,7.06
2018-02-19T09:45:36.039Z,6.84
2018-02-19T09:46:35.960Z,6.70
2018-02-19T09:47:36.029Z,6.67
2018-02-19T09:48:36.016Z,6.46
2018-02-19T09:49:35.912Z,6.35
2018-02-19T09:50:35.892Z,6.45
2018-02-19T09:51:35.865Z,6.49
2018-02-19T09:52:35.869Z,6.56
2018-02-19T09:53:35.841Z,6.60
2018-02-19T09:54:35.804Z,6.72
2018-02-19T09:55:35.811Z,6.85
2018-02-19T09:56:35.788Z,6.95
2018-02-19T09:57:35.734Z,7.07
2018-02-19T09:58:35.841Z,7.29
2018-02-19T09:59:35.710Z,7.43
2018-02-19T10:00:35.691Z,7.50
2018-02-19T10:01:35.697Z,7.45
2018-02-19T10:02:36.185Z,7.39
2018-02-19T10:03:35.633Z,7.28
2018-02-19T10:04:35.598Z,7.13
2018-02-19T10:05:35.650Z,7.13
2018-02-19T10:06:35.577Z,6.89
2018-02-19T10:07:35.558Z,6.78
2018-02-19T10:08:35.506Z,6.64
2018-02-19T10:09:35.479Z,6.44
2018-02-19T10:10:35.478Z,6.27
2018-02-19T10:11:35.445Z,6.09
2018-02-19T10:12:35.468Z,5.98
2018-02-19T10:13:36.175Z,5.83
2018-02-19T10:14:35.386Z,5.71
2018-02-19T10:15:35.395Z,5.56
2018-02-19T10:16:35.354Z,5.43
2018-02-19T10:17:35.331Z,5.25
2018-02-19T10:18:35.323Z,5.21
2018-02-19T10:19:35.291Z,5.12
2018-02-19T10:20:35.248Z,5.11
2018-02-19T10:21:35.244Z,5.05
2018-02-19T10:22:35.201Z,5.02
2018-02-19T10:23:35.212Z,5.00
2018-02-19T10:24:35.701Z,4.94
2018-02-19T10:25:35.169Z,4.97
2018-02-19T10:26:35.143Z,4.97
2018-02-19T10:27:35.102Z,4.86
2018-02-19T10:28:35.087Z,4.99
2018-02-19T10:29:35.075Z,4.90
2018-02-19T10:30:35.049Z,4.94
2018-02-19T10:31:35.041Z,4.78
2018-02-19T10:32:35.009Z,4.80
2018-02-19T10:33:34.985Z,4.70
2018-02-19T10:34:34.958Z,4.60
2018-02-19T10:35:34.950Z,4.62
2018-02-19T10:36:34.924Z,4.55
2018-02-19T10:37:34.878Z,4.68
2018-02-19T10:38:34.846Z,4.66
2018-02-19T10:39:34.911Z,4.70
2018-02-19T10:40:34.863Z,4.66
2018-02-19T10:41:34.817Z,4.82
2018-02-19T10:42:34.785Z,4.74
2018-02-19T10:43:34.800Z,4.92
2018-02-19T10:44:34.780Z,4.96
2018-02-19T10:45:34.741Z,4.90
2018-02-19T10:46:34.702Z,4.92
2018-02-19T10:47:34.640Z,5.02
2018-02-19T10:48:34.636Z,5.17
2018-02-19T10:49:34.629Z,5.28
2018-02-19T10:50:34.617Z,5.21
2018-02-19T10:51:34.589Z,5.38
2018-02-19T10:52:34.571Z,5.50
2018-02-19T10:53:34.549Z,5.46
2018-02-19T10:54:34.522Z,5.56
2018-02-19T10:55:34.489Z,5.56
2018-02-19T10:56:34.499Z,5.64
2018-02-19T10:57:34.487Z,5.73
2018-02-19T10:58:34.416Z,5.75
2018-02-19T10:59:34.396Z,5.84
2018-02-19T11:00:34.384Z,5.82
2018-02-19T11:01:34.371Z,5.97
2018-02-19T11:02:34.369Z,6.02
2018-02-19T11:03:34.301Z,6.11
2018-02-19T11:04:34.310Z,6.05
2018-02-19T11:05:34.306Z,6.08
2018-02-19T11:06:34.247Z,6.28
2018-02-19T11:07:34.222Z,6.35
2018-02-19T11:08:34.207Z,6.51
2018-02-19T11:09:34.201Z,6.63
2018-02-19T11:10:34.144Z,6.64
2018-02-19T11:11:34.189Z,6.69
2018-02-19T11:12:34.126Z,6.59
2018-02-19T11:13:34.132Z,6.74
2018-02-19T11:14:34.108Z,6.85
2018-02-19T11:15:34.101Z,6.88
2018-02-19T11:16:34.031Z,7.07
2018-02-19T11:17:34.050Z,7.31
2018-02-19T11:18:34.021Z,7.54
2018-02-19T11:19:34.004Z,7.80
2018-02-19T11:20:33.954Z,8.09
2018-02-19T11:21:33.950Z,8.20
2018-02-19T11:22:33.925Z,8.33
2018-02-19T11:23:33.911Z,8.51
2018-02-19T11:24:33.908Z,8.58
2018-02-19T11:25:33.884Z,8.52
2018-02-19T11:26:33.866Z,8.53
2018-02-19T11:27:33.870Z,8.69
2018-02-19T11:28:33.793Z,8.79
2018-02-19T11:29:33.798Z,8.81
2018-02-19T11:30:33.806Z,8.94
2018-02-19T11:31:33.773Z,9.14
2018-02-19T11:32:33.715Z,9.29
2018-02-19T11:33:33.721Z,9.41
2018-02-19T11:34:33.692Z,9.40
2018-02-19T11:35:33.659Z,9.41
2018-02-19T11:36:33.642Z,9.43
2018-02-19T11:37:33.607Z,9.44
2018-02-19T11:38:33.615Z,9.61
2018-02-19T11:39:33.627Z,9.74
2018-02-19T11:40:33.564Z,9.79
2018-02-19T11:41:33.542Z,9.74
2018-02-19T11:42:33.540Z,9.83
2018-02-19T11:43:33.565Z,9.76
2018-02-19T11:44:33.454Z,9.74
2018-02-19T11:45:33.445Z,9.66
2018-02-19T11:46:33.439Z,9.72
2018-02-19T11:47:33.420Z,9.80
2018-02-19T11:48:33.392Z,9.92
2018-02-19T11:49:33.378Z,9.84
2018-02-19T11:50:33.374Z,9.86
2018-02-19T11:51:33.346Z,9.74
2018-02-19T11:52:33.328Z,9.59
2018-02-19T11:53:33.316Z,9.50
2018-02-19T11:54:33.310Z,9.37
2018-02-19T11:55:33.259Z,9.26
2018-02-19T11:56:33.260Z,9.16
2018-02-19T11:57:33.219Z,9.08
2018-02-19T11:58:33.213Z,8.89
2018-02-19T11:59:33.188Z,8.67
2018-02-19T12:00:33.160Z,8.67
2018-02-19T12:01:33.152Z,8.60
2018-02-19T12:02:33.152Z,8.36
2018-02-19T12:03:33.118Z,8.26
2018-02-19T12:04:33.095Z,8.12
2018-02-19T12:05:33.075Z,7.94
2018-02-19T12:06:33.047Z,7.79
2018-02-19T12:07:33.002Z,7.73
2018-02-19T12:08:33.012Z,7.60
2018-02-19T12:09:32.978Z,7.53
2018-02-19T12:10:32.979Z,7.40
2018-02-19T12:11:32.968Z,7.32
2018-02-19T12:12:32.914Z,7.23
2018-02-19T12:13:32.913Z,7.23
2018-02-19T12:14:32.908Z,7.23
2018-02-19T12:15:32.878Z,7.29
2018-02-19T12:16:32.853Z,7.18
2018-02-19T12:17:32.834Z,7.23
2018-02-19T12:18:32.830Z,7.24
2018-02-19T12:19:32.819Z,7.17
2018-02-19T12:20:32.755Z,7.13
2018-02-19T12:21:32.728Z,7.13
2018-02-19T12:22:32.717Z,7.13
2018-02-19T12:23:32.729Z,7.07
2018-02-19T12:24:32.669Z,6.92
2018-02-19T12:25:32.656Z,6.89
2018-02-19T12:26:32.697Z,6.88
2018-02-19T12:27:32.632Z,6.75
2018-02-19T12:28:32.605Z,6.63
2018-02-19T12:29:32.615Z,6.63
2018-02-19T12:30:32.575Z,6.59
2018-02-19T12:31:32.541Z,6.39
2018-02-19T12:32:32.544Z,6.27
2018-02-19T12:33:32.494Z,6.24
2018-02-19T12:34:32.487Z,6.19
2018-02-19T12:35:32.445Z,6.09
2018-02-19T12:36:32.413Z,6.04
2018-02-19T12:37:32.424Z,6.01
2018-02-19T12:38:32.378Z,5.97
2018-02-19T12:39:32.352Z,5.90
2018-02-19T12:40:32.344Z,5.84
2018-02-19T12:41:32.329Z,5.80
2018-02-19T12:42:32.386Z,5.73
2018-02-19T12:43:33.245Z,5.62
2018-02-19T12:44:32.280Z,5.62
2018-02-19T12:45:32.257Z,5.53
2018-02-19T12:46:32.231Z,5.48
2018-02-19T12:47:32.181Z,5.41
2018-02-19T12:48:32.187Z,5.41
2018-02-19T12:49:32.156Z,5.39
2018-02-19T12:50:32.126Z,5.38
2018-02-19T12:51:32.099Z,5.26
2018-02-19T12:52:32.090Z,5.14
2018-02-19T12:53:32.060Z,5.08
2018-02-19T12:54:32.078Z,5.12
2018-02-19T12:55:32.005Z,5.10
2018-02-19T12:56:31.998Z,5.02
2018-02-19T12:57:31.961Z,5.07
2018-02-19T12:58:31.956Z,5.07
2018-02-19T12:59:31.977Z,5.07
2018-02-19T13:00:31.917Z,5.05
2018-02-19T13:01:31.904Z,5.11
2018-02-19T13:02:31.902Z,5.08
2018-02-19T13:03:31.863Z,5.00
2018-02-19T13:04:31.809Z,5.00
2018-02-19T13:05:31.799Z,4.96
2018-02-19T13:06:31.780Z,4.96
2018-02-19T13:07:31.777Z,4.99
2018-02-19T13:08:31.739Z,4.92
2018-02-19T13:09:31.735Z,4.82
2018-02-19T13:10:31.695Z,4.86
2018-02-19T13:11:31.665Z,4.87
2018-02-19T13:12:31.624Z,4.84
2018-02-19T13:13:31.621Z,4.84
2018-02-19T13:14:31.625Z,4.87
2018-02-19T13:15:31.586Z,4.89
2018-02-19T13:16:31.555Z,4.87
2018-02-19T13:17:31.524Z,4.89
2018-02-19T13:18:32.158Z,4.82
2018-02-19T13:19:31.500Z,4.77
2018-02-19T13:20:31.492Z,4.77
2018-02-19T13:21:31.461Z,4.93
2018-02-19T13:22:31.430Z,4.93
2018-02-19T13:23:31.411Z,4.97
2018-02-19T13:24:31.386Z,4.96
2018-02-19T13:25:31.362Z,5.00
2018-02-19T13:26:31.329Z,5.08
2018-02-19T13:27:31.357Z,5.14
2018-02-19T13:28:31.380Z,5.11
2018-02-19T13:29:31.271Z,5.11
2018-02-19T13:30:31.281Z,5.00
2018-02-19T13:31:31.248Z,5.05
2018-02-19T13:32:31.201Z,5.11
2018-02-19T13:33:31.179Z,5.05
2018-02-19T13:34:31.197Z,5.11
2018-02-19T13:35:31.195Z,5.11
2018-02-19T13:36:31.153Z,5.08
2018-02-19T13:37:31.116Z,5.08
2018-02-19T13:38:31.129Z,5.14
2018-02-19T13:39:31.155Z,5.18
2018-02-19T13:40:31.104Z,5.18
2018-02-19T13:41:31.076Z,5.20
2018-02-19T13:42:30.988Z,5.07
2018-02-19T13:43:31.023Z,5.10
2018-02-19T13:44:30.962Z,5.10
2018-02-19T13:45:30.917Z,5.05
2018-02-19T13:46:30.902Z,4.97
2018-02-19T13:47:30.905Z,5.04
2018-02-19T13:48:30.855Z,5.11
2018-02-19T13:49:30.850Z,5.04
2018-02-19T13:50:30.864Z,5.15
2018-02-19T13:51:30.817Z,5.14
2018-02-19T13:52:30.756Z,5.04
2018-02-19T13:53:30.747Z,5.14
2018-02-19T13:54:30.772Z,5.20
2018-02-19T13:55:30.697Z,5.21
2018-02-19T13:56:30.769Z,5.15
2018-02-19T13:57:30.706Z,5.20
2018-02-19T13:58:30.655Z,5.21
2018-02-19T13:59:30.656Z,5.29
2018-02-19T14:00:30.624Z,5.25
2018-02-19T14:01:30.600Z,5.25
2018-02-19T14:02:30.550Z,5.23
2018-02-19T14:03:30.586Z,5.29
2018-02-19T14:04:30.530Z,5.35
2018-02-19T14:05:30.506Z,5.32
2018-02-19T14:06:30.457Z,5.33
2018-02-19T14:07:30.472Z,5.29
2018-02-19T14:08:30.435Z,5.38
2018-02-19T14:09:30.428Z,5.35
2018-02-19T14:10:30.432Z,5.33
2018-02-19T14:11:30.354Z,5.33
2018-02-19T14:12:30.337Z,5.29
2018-02-19T14:13:30.348Z,5.30
2018-02-19T14:14:30.313Z,5.25
2018-02-19T14:15:30.281Z,5.15
2018-02-19T14:16:30.238Z,5.11
2018-02-19T14:17:30.228Z,5.15
2018-02-19T14:18:30.226Z,5.18
2018-02-19T14:19:30.201Z,5.07
2018-02-19T14:20:30.152Z,5.14
2018-02-19T14:21:30.220Z,5.07
2018-02-19T14:22:30.157Z,5.04
2018-02-19T14:23:30.104Z,4.94
2018-02-19T14:24:30.077Z,4.94
2018-02-19T14:25:30.121Z,4.97
2018-02-19T14:26:30.041Z,5.07
2018-02-19T14:27:30.041Z,4.96
2018-02-19T14:28:30.001Z,4.96
2018-02-19T14:29:29.942Z,4.93